createdAt,value
2023-12-08T00:00:01.025Z,49.9
2023-12-08T00:05:00.656Z,64.2
2023-12-08T00:10:00.648Z,74.7
2023-12-08T00:15:04.753Z,67.5
2023-12-08T00:20:00.948Z,67.5
2023-12-08T00:25:00.936Z,67.5
2023-12-08T00:30:00.948Z,66.9
2023-12-08T00:35:00.703Z,63.5
2023-12-08T00:40:00.618Z,73.5
2023-12-08T00:45:01.300Z,67.6
2023-12-08T00:50:00.669Z,118.9
2023-12-08T00:55:00.655Z,83.6
2023-12-08T01:00:01.662Z,67.7
2023-12-08T01:05:01.093Z,72.5
2023-12-08T01:10:00.718Z,65.8
2023-12-08T01:15:00.753Z,72.0
2023-12-08T01:20:00.760Z,75.2
2023-12-08T01:25:00.653Z,69.3
2023-12-08T01:30:01.322Z,74.5
2023-12-08T01:35:00.651Z,85.2
2023-12-08T01:40:00.694Z,125.5
2023-12-08T01:45:00.894Z,153.1
2023-12-08T01:50:00.696Z,156.5
2023-12-08T01:55:00.813Z,152.9
2023-12-08T02:00:00.950Z,152.0
2023-12-08T02:05:00.899Z,138.6
2023-12-08T02:10:00.694Z,86.3
2023-12-08T02:15:01.369Z,103.8
2023-12-08T02:20:00.663Z,153.7
2023-12-08T02:25:01.094Z,78.9
2023-12-08T02:30:01.358Z,75.5
2023-12-08T02:35:00.660Z,150.1
2023-12-08T02:40:01.802Z,99.3
2023-12-08T02:45:00.967Z,92.3
2023-12-08T02:50:01.277Z,85.3
2023-12-08T02:55:00.651Z,71.6
2023-12-08T03:00:00.895Z,96.8
2023-12-08T03:05:00.676Z,106.6
2023-12-08T03:10:00.632Z,154.8
2023-12-08T03:15:02.147Z,94.6
2023-12-08T03:20:01.028Z,137.6
2023-12-08T03:25:00.638Z,131.8
2023-12-08T03:30:00.993Z,78.9
2023-12-08T03:35:00.630Z,132.2
2023-12-08T03:40:00.694Z,85.8
2023-12-08T03:45:01.109Z,127.2
2023-12-08T03:50:01.241Z,71.0
2023-12-08T03:55:00.646Z,88.4
2023-12-08T04:00:01.384Z,69.7
2023-12-08T04:05:00.669Z,85.7
2023-12-08T04:10:00.653Z,85.7
2023-12-08T04:15:00.801Z,72.4
2023-12-08T04:20:00.628Z,85.2
2023-12-08T04:25:00.650Z,78.3
2023-12-08T04:30:00.997Z,74.1
2023-12-08T04:35:00.633Z,93.9
2023-12-08T04:40:00.791Z,79.7
2023-12-08T04:45:01.917Z,86.9
2023-12-08T04:50:00.850Z,80.0
2023-12-08T04:55:00.647Z,77.5
2023-12-08T05:00:01.394Z,75.9
2023-12-08T05:05:00.661Z,115.2
2023-12-08T05:10:01.296Z,43.5
2023-12-08T05:15:00.858Z,116.7
2023-12-08T05:20:06.108Z,113.8
2023-12-08T05:25:01.949Z,127.6
2023-12-08T05:30:01.540Z,78.5
2023-12-08T05:35:00.614Z,188.6
2023-12-08T05:40:00.698Z,143.2
2023-12-08T05:45:01.034Z,107.7
2023-12-08T05:50:00.599Z,153.6
2023-12-08T05:55:00.658Z,86.4
2023-12-08T06:00:01.091Z,76.9
2023-12-08T06:05:00.630Z,103.3
2023-12-08T06:10:00.649Z,72.3
2023-12-08T06:15:02.388Z,88.4
2023-12-08T06:20:00.690Z,86.5
2023-12-08T06:25:00.691Z,140.7
2023-12-08T06:30:00.879Z,70.6
2023-12-08T06:35:01.967Z,110.6
2023-12-08T06:40:00.671Z,138.9
2023-12-08T06:45:01.961Z,89.7
2023-12-08T06:50:01.154Z,105.8
2023-12-08T06:55:01.640Z,94.1
2023-12-08T07:00:02.859Z,141.6
2023-12-08T07:05:00.924Z,100.8
2023-12-08T07:10:00.651Z,86.7
2023-12-08T07:15:01.890Z,85.8
2023-12-08T07:20:01.979Z,83.0
2023-12-08T07:25:00.667Z,87.6
2023-12-08T07:30:01.069Z,91.4
2023-12-08T07:35:00.648Z,73.7
2023-12-08T07:40:00.678Z,79.8
2023-12-08T07:45:01.669Z,80.5
2023-12-08T07:50:00.823Z,88.2
2023-12-08T07:55:00.717Z,88.8
2023-12-08T08:00:00.846Z,98.6
2023-12-08T08:05:00.655Z,102.7
2023-12-08T08:10:01.867Z,102.2
2023-12-08T08:15:00.828Z,75.1
2023-12-08T08:20:01.980Z,99.8
2023-12-08T08:25:00.705Z,139.5
2023-12-08T08:30:01.046Z,130.1
2023-12-08T08:35:01.292Z,132.9
2023-12-08T08:40:00.791Z,126.4
2023-12-08T08:45:00.946Z,126.1
2023-12-08T08:50:01.386Z,149.7
2023-12-08T08:55:00.695Z,152.8
2023-12-08T09:00:02.295Z,92.5
2023-12-08T09:05:01.295Z,100.4
2023-12-08T09:10:00.690Z,133.3
2023-12-08T09:15:00.855Z,118.3
2023-12-08T09:20:00.635Z,128.5
2023-12-08T09:25:00.627Z,125.0
2023-12-08T09:30:01.121Z,148.6
2023-12-08T09:35:01.043Z,127.3
2023-12-08T09:40:01.036Z,127.1
2023-12-08T09:45:01.130Z,130.9
2023-12-08T09:50:01.452Z,133.7
2023-12-08T09:55:00.585Z,127.9
2023-12-08T10:00:01.163Z,120.3
2023-12-08T10:05:00.792Z,113.7
2023-12-08T10:10:00.646Z,140.8
2023-12-08T10:15:00.955Z,112.4
2023-12-08T10:20:00.877Z,131.8
2023-12-08T10:25:00.672Z,134.5
2023-12-08T10:30:01.101Z,145.3
2023-12-08T10:35:00.674Z,158.9
2023-12-08T10:40:00.612Z,148.5
2023-12-08T10:45:00.915Z,132.2
2023-12-08T10:50:00.636Z,144.2
2023-12-08T10:55:00.632Z,135.3
2023-12-08T11:00:00.787Z,143.5
2023-12-08T11:05:00.921Z,146.8
2023-12-08T11:10:00.682Z,153.3
2023-12-08T11:15:01.052Z,126.5
2023-12-08T11:20:01.111Z,116.2
2023-12-08T11:25:00.703Z,144.1
2023-12-08T11:30:00.884Z,154.3
2023-12-08T11:35:01.300Z,164.0
2023-12-08T11:40:01.141Z,151.7
2023-12-08T11:45:00.868Z,139.0
2023-12-08T11:50:00.870Z,138.3
2023-12-08T11:55:22.064Z,126.3
2023-12-08T12:00:00.803Z,134.7
2023-12-08T12:05:00.928Z,130.8
2023-12-08T12:10:00.980Z,139.9
2023-12-08T12:15:00.837Z,90.5
2023-12-08T12:20:00.655Z,149.4
2023-12-08T12:25:00.661Z,138.4
2023-12-08T12:30:00.882Z,156.1
2023-12-08T12:35:01.013Z,150.1
2023-12-08T12:40:00.727Z,152.8
2023-12-08T12:45:03.988Z,112.1
2023-12-08T12:50:00.648Z,130.6
2023-12-08T12:55:00.639Z,112.4
2023-12-08T13:00:01.028Z,137.7
2023-12-08T13:05:00.854Z,118.9
2023-12-08T13:10:00.661Z,135.0
2023-12-08T13:15:09.743Z,120.6
2023-12-08T13:20:01.017Z,80.0
2023-12-08T13:25:00.661Z,71.9
2023-12-08T13:30:00.845Z,81.6
2023-12-08T13:35:00.711Z,140.3
2023-12-08T13:40:00.674Z,104.2
2023-12-08T13:45:04.723Z,98.2
2023-12-08T13:50:00.682Z,136.2
2023-12-08T13:55:00.676Z,106.8
2023-12-08T14:00:01.072Z,92.3
2023-12-08T14:05:01.028Z,107.3
2023-12-08T14:10:00.722Z,118.5
2023-12-08T14:15:01.085Z,134.7
2023-12-08T14:20:01.022Z,155.2
2023-12-08T14:25:00.896Z,149.6
2023-12-08T14:30:00.862Z,135.3
2023-12-08T14:35:30.989Z,152.0
2023-12-08T14:40:03.639Z,110.6
2023-12-08T14:45:00.893Z,147.1
2023-12-08T14:50:00.937Z,136.6
2023-12-08T14:55:16.856Z,126.6
2023-12-08T15:00:01.040Z,132.1
2023-12-08T15:05:01.061Z,112.3
2023-12-08T15:10:00.754Z,158.1
2023-12-08T15:15:01.234Z,144.9
2023-12-08T15:20:00.621Z,108.6
2023-12-08T15:25:00.724Z,142.4
2023-12-08T15:30:00.840Z,157.2
2023-12-08T15:35:00.655Z,120.8
2023-12-08T15:40:00.665Z,138.6
2023-12-08T15:45:07.033Z,133.8
2023-12-08T15:50:00.852Z,122.3
2023-12-08T15:55:00.646Z,156.7
2023-12-08T16:00:00.885Z,130.0
2023-12-08T16:05:00.676Z,136.4
2023-12-08T16:10:01.012Z,160.5
2023-12-08T16:15:00.811Z,145.3
2023-12-08T16:20:00.886Z,152.7
2023-12-08T16:25:00.722Z,178.2
2023-12-08T16:30:01.062Z,156.3
2023-12-08T16:35:00.839Z,165.4
2023-12-08T16:40:00.724Z,164.9
2023-12-08T16:45:04.344Z,174.3
2023-12-08T16:50:01.782Z,152.0
2023-12-08T16:55:00.641Z,143.0
2023-12-08T17:00:01.124Z,160.8
2023-12-08T17:05:01.158Z,159.4
2023-12-08T17:10:00.741Z,144.1
2023-12-08T17:15:01.056Z,166.3
2023-12-08T17:20:01.115Z,134.8
2023-12-08T17:25:00.666Z,152.7
2023-12-08T17:30:01.186Z,163.7
2023-12-08T17:35:01.282Z,139.8
2023-12-08T17:40:00.649Z,165.4
2023-12-08T17:45:00.970Z,137.5
2023-12-08T17:50:01.071Z,158.2
2023-12-08T17:55:00.657Z,149.9
2023-12-08T18:00:04.095Z,121.1
2023-12-08T18:05:00.672Z,90.2
2023-12-08T18:10:00.653Z,154.9
2023-12-08T18:15:01.022Z,68.3
2023-12-08T18:20:00.624Z,133.6
2023-12-08T18:25:00.625Z,140.6
2023-12-08T18:30:00.872Z,155.6
2023-12-08T18:35:00.672Z,154.6
2023-12-08T18:40:00.757Z,158.1
2023-12-08T18:45:00.852Z,144.1
2023-12-08T18:50:01.198Z,153.6
2023-12-08T18:55:00.649Z,155.9
2023-12-08T19:00:01.370Z,157.7
2023-12-08T19:05:00.970Z,103.0
2023-12-08T19:10:00.700Z,122.2
2023-12-08T19:15:00.894Z,165.4
2023-12-08T19:20:00.667Z,157.0
2023-12-08T19:25:00.637Z,153.2
2023-12-08T19:30:00.866Z,163.5
2023-12-08T19:35:00.622Z,139.6
2023-12-08T19:40:00.641Z,152.4
2023-12-08T19:45:00.810Z,172.0
2023-12-08T19:50:00.790Z,147.1
2023-12-08T19:55:00.660Z,163.7
2023-12-08T20:00:01.052Z,174.3
2023-12-08T20:05:00.650Z,156.4
2023-12-08T20:10:00.660Z,163.8
2023-12-08T20:15:00.893Z,175.1
2023-12-08T20:20:00.917Z,178.5
2023-12-08T20:25:00.641Z,177.0
2023-12-08T20:30:00.979Z,164.4
2023-12-08T20:35:00.879Z,179.3
2023-12-08T20:40:00.811Z,176.3
2023-12-08T20:45:00.932Z,161.3
2023-12-08T20:50:00.790Z,161.4
2023-12-08T20:55:02.682Z,169.0
2023-12-08T21:00:01.072Z,163.1
2023-12-08T21:05:00.641Z,161.9
2023-12-08T21:10:02.678Z,177.7
2023-12-08T21:15:00.841Z,168.0
2023-12-08T21:20:01.213Z,179.1
2023-12-08T21:25:00.690Z,158.6
2023-12-08T21:30:00.836Z,158.1
2023-12-08T21:35:00.669Z,158.9
2023-12-08T21:40:00.631Z,176.3
2023-12-08T21:45:00.832Z,165.6
2023-12-08T21:50:01.019Z,178.4
2023-12-08T21:55:00.690Z,157.9
2023-12-08T22:00:01.233Z,159.2
2023-12-08T22:05:00.884Z,160.5
2023-12-08T22:10:00.624Z,156.5
2023-12-08T22:15:00.865Z,191.7
2023-12-08T22:20:00.887Z,170.4
2023-12-08T22:25:00.704Z,180.3
2023-12-08T22:30:02.783Z,179.2
2023-12-08T22:35:00.598Z,184.3
2023-12-08T22:40:00.635Z,174.5
2023-12-08T22:45:00.944Z,195.6
2023-12-08T22:50:04.294Z,182.4
2023-12-08T22:55:00.923Z,186.7
2023-12-08T23:00:01.127Z,199.9
2023-12-08T23:05:01.015Z,191.7
2023-12-08T23:10:00.589Z,190.3
2023-12-08T23:15:00.803Z,197.5
2023-12-08T23:20:00.642Z,181.6
2023-12-08T23:25:00.671Z,182.2
2023-12-08T23:30:01.275Z,194.8
2023-12-08T23:35:00.819Z,189.4
2023-12-08T23:40:01.000Z,182.0
2023-12-08T23:45:00.950Z,180.6
2023-12-08T23:50:00.588Z,195.7
2023-12-08T23:55:00.629Z,202.5
